Time;durP1;ratioP1;P1;durP2;ratioP2;P2;SDS_P1;SDS_P2;PMS_P1;PMS_P2;Temp;Humidity;BMP_temperature;BMP_pressure;BME280_temperature;BME280_humidity;BME280_pressure;Samples;Min_cycle;Max_cycle;Signal;HPM_P1;HPM_P2
2022/02/17 00:01:21;;;;;;;20.43;16.70;;;23.00;99.90;;;;;;1890600;75;21191;-83
2022/02/17 00:03:52;;;;;;;23.20;17.50;;;22.90;99.90;;;;;;1885270;75;21569;-83
2022/02/17 00:06:24;;;;;;;21.87;17.07;;;23.00;99.90;;;;;;1897663;74;21817;-83
2022/02/17 00:08:54;;;;;;;25.70;18.15;;;22.90;99.90;;;;;;1886709;75;21188;-82
2022/02/17 00:11:25;;;;;;;25.02;17.42;;;22.90;99.90;;;;;;1879726;75;21077;-83
2022/02/17 00:13:56;;;;;;;23.95;18.10;;;22.90;99.90;;;;;;1870717;75;21169;-83
2022/02/17 00:16:38;;;;;;;;;;;;;;;;;;;;;
2022/02/17 00:19:03;;;;;;;26.67;18.60;;;23.00;99.90;;;;;;1885267;74;21604;-83
2022/02/17 00:21:34;;;;;;;28.27;18.75;;;22.90;99.90;;;;;;1885050;75;21147;-82
2022/02/17 00:24:10;;;;;;;24.75;18.32;;;22.90;99.90;;;;;;1891036;74;21136;-82
2022/02/17 00:26:41;;;;;;;30.85;22.45;;;22.90;99.90;;;;;;1880916;75;21125;-83
2022/02/17 00:29:12;;;;;;;30.88;20.10;;;23.00;99.90;;;;;;1884518;75;21097;-83
2022/02/17 00:31:43;;;;;;;25.23;19.62;;;23.00;99.90;;;;;;1897080;75;21243;-83
2022/02/17 00:34:14;;;;;;;26.17;20.27;;;23.00;99.90;;;;;;1891722;75;21520;-83
2022/02/17 00:36:49;;;;;;;25.62;18.32;;;23.00;99.90;;;;;;1890699;75;21214;-83
2022/02/17 00:39:21;;;;;;;24.37;18.50;;;22.90;99.90;;;;;;1884460;75;21237;-83
2022/02/17 00:41:52;;;;;;;26.25;18.87;;;22.90;99.90;;;;;;1888340;75;22281;-83
2022/02/17 00:44:24;;;;;;;34.05;23.05;;;22.90;99.90;;;;;;1893167;75;21762;-83
2022/02/17 00:46:58;;;;;;;27.58;21.07;;;22.90;99.90;;;;;;1898374;75;21532;-81
2022/02/17 00:49:30;;;;;;;26.65;20.82;;;23.00;99.90;;;;;;1881192;75;21132;-83
2022/02/17 00:52:01;;;;;;;27.93;21.25;;;23.00;99.90;;;;;;1881853;75;21089;-82
2022/02/17 00:54:31;;;;;;;27.50;20.20;;;23.00;99.90;;;;;;1892214;75;21145;-82
2022/02/17 00:57:03;;;;;;;29.07;20.35;;;23.00;99.90;;;;;;1891330;75;21152;-82
2022/02/17 00:59:34;;;;;;;22.58;19.15;;;23.00;99.90;;;;;;1883280;75;21517;-82
2022/02/17 01:02:05;;;;;;;23.67;17.80;;;23.00;99.90;;;;;;1888909;75;21144;-82
2022/02/17 01:04:48;;;;;;;;;;;;;;;;;;;;;
2022/02/17 01:07:31;;;;;;;24.15;18.02;;;23.00;99.90;;;;;;1804233;75;21214;-81
2022/02/17 01:10:00;;;;;;;21.75;17.05;;;23.00;99.90;;;;;;1867800;75;21241;-83
2022/02/17 01:12:31;;;;;;;24.23;16.85;;;23.00;99.90;;;;;;1891070;75;21149;-84
2022/02/17 01:15:03;;;;;;;23.87;19.15;;;23.10;99.90;;;;;;1889179;74;21228;-82
2022/02/17 01:17:34;;;;;;;20.43;17.87;;;23.10;99.90;;;;;;1876543;75;21205;-82
2022/02/17 01:20:06;;;;;;;22.80;17.92;;;23.10;99.90;;;;;;1873978;75;21097;-82
2022/02/17 01:22:37;;;;;;;23.42;18.20;;;23.10;99.90;;;;;;1882134;75;21085;-82
2022/02/17 01:25:08;;;;;;;26.85;19.95;;;23.10;99.90;;;;;;1884590;75;21070;-83
2022/02/17 01:27:39;;;;;;;26.70;21.02;;;23.10;99.90;;;;;;1879056;75;21170;-82
2022/02/17 01:30:12;;;;;;;26.55;20.72;;;23.10;99.90;;;;;;1888146;75;21222;-81
2022/02/17 01:32:42;;;;;;;25.37;19.07;;;23.10;99.90;;;;;;1882600;75;21070;-84
2022/02/17 01:35:13;;;;;;;24.23;18.45;;;23.10;99.90;;;;;;1885601;75;21644;-73
2022/02/17 01:37:46;;;;;;;93.75;24.85;;;23.20;99.90;;;;;;1888106;75;21508;-72
2022/02/17 01:40:17;;;;;;;25.17;18.85;;;23.20;99.90;;;;;;1888423;75;21167;-72
2022/02/17 01:42:48;;;;;;;24.52;18.40;;;23.20;99.90;;;;;;1898888;75;21164;-73
2022/02/17 01:45:19;;;;;;;23.77;18.55;;;23.30;99.90;;;;;;1878544;75;21097;-72
2022/02/17 01:47:50;;;;;;;22.60;18.23;;;23.30;99.90;;;;;;1880210;74;21115;-71
2022/02/17 01:50:22;;;;;;;25.77;18.70;;;23.30;99.90;;;;;;1888916;74;21144;-72
2022/02/17 01:52:52;;;;;;;28.75;19.90;;;23.40;99.90;;;;;;1881950;75;21605;-74
2022/02/17 01:55:24;;;;;;;25.92;18.65;;;23.40;99.90;;;;;;1877357;75;21183;-72
2022/02/17 01:57:56;;;;;;;26.23;18.40;;;23.40;99.90;;;;;;1889276;75;22190;-73
2022/02/17 02:00:30;;;;;;;25.05;18.27;;;23.50;99.90;;;;;;1874251;75;21560;-73
2022/02/17 02:02:59;;;;;;;24.07;18.48;;;23.50;99.90;;;;;;1881090;75;21159;-73
2022/02/17 02:05:30;;;;;;;23.85;18.60;;;23.60;99.90;;;;;;1881941;75;21096;-74
2022/02/17 02:08:01;;;;;;;21.80;18.92;;;23.70;99.90;;;;;;1892107;75;21576;-75
2022/02/17 02:10:35;;;;;;;24.35;18.95;;;23.70;99.90;;;;;;1895942;74;21864;-75
2022/02/17 02:13:07;;;;;;;24.57;19.12;;;23.80;99.90;;;;;;1872967;75;21065;-74
2022/02/17 02:15:40;;;;;;;23.60;18.32;;;23.80;99.90;;;;;;1845659;77;21155;-75
2022/02/17 02:18:11;;;;;;;26.75;20.35;;;23.90;99.90;;;;;;1878884;75;21159;-72
2022/02/17 02:20:45;;;;;;;27.70;20.52;;;23.90;99.90;;;;;;1888306;75;21683;-74
2022/02/17 02:23:16;;;;;;;25.00;20.32;;;23.90;99.90;;;;;;1876592;75;21292;-74
2022/02/17 02:25:50;;;;;;;27.87;22.55;;;23.90;99.90;;;;;;1881424;75;21191;-73
2022/02/17 02:28:24;;;;;;;27.77;21.80;;;23.90;99.90;;;;;;1883175;75;21249;-72
2022/02/17 02:30:56;;;;;;;22.50;18.73;;;24.00;99.80;;;;;;1884462;75;21654;-72
2022/02/17 02:33:27;;;;;;;22.17;18.70;;;24.00;99.70;;;;;;1894872;75;21156;-71
2022/02/17 02:36:00;;;;;;;24.43;20.37;;;24.00;99.70;;;;;;1877149;75;21147;-72
2022/02/17 02:38:35;;;;;;;24.15;19.17;;;24.10;99.90;;;;;;1889264;74;21209;-74
2022/02/17 02:41:06;;;;;;;24.25;18.07;;;24.20;99.40;;;;;;1872924;75;21152;-71
2022/02/17 02:43:37;;;;;;;24.72;18.42;;;24.20;99.20;;;;;;1850062;76;21427;-72
2022/02/17 02:46:08;;;;;;;23.65;18.10;;;24.20;99.20;;;;;;1883554;75;21152;-71
2022/02/17 02:48:39;;;;;;;24.52;18.90;;;24.30;99.10;;;;;;1897426;75;21182;-72
2022/02/17 02:51:10;;;;;;;24.72;18.50;;;24.30;99.00;;;;;;1894880;75;21045;-71
2022/02/17 02:53:41;;;;;;;20.27;16.62;;;24.40;98.90;;;;;;1880600;75;21109;-72
2022/02/17 02:56:11;;;;;;;21.42;16.32;;;24.50;98.70;;;;;;1886352;75;21108;-73
2022/02/17 02:58:42;;;;;;;21.45;18.10;;;24.50;98.50;;;;;;1833933;78;21201;-73
2022/02/17 03:01:13;;;;;;;21.93;17.90;;;24.60;98.20;;;;;;1882283;75;21143;-72
2022/02/17 03:03:48;;;;;;;21.17;17.57;;;24.60;98.10;;;;;;1878830;75;21164;-72
2022/02/17 03:06:16;;;;;;;21.37;16.57;;;24.70;98.00;;;;;;1883607;74;21524;-72
2022/02/17 03:08:47;;;;;;;19.35;16.60;;;24.70;97.90;;;;;;1882120;75;21166;-73
2022/02/17 03:11:18;;;;;;;17.90;15.65;;;24.70;97.80;;;;;;1885330;75;21113;-73
2022/02/17 03:13:49;;;;;;;20.48;16.12;;;24.80;97.80;;;;;;1891762;75;22126;-73
2022/02/17 03:16:20;;;;;;;19.82;14.93;;;24.80;97.50;;;;;;1888202;74;21615;-72
2022/02/17 03:18:51;;;;;;;19.02;15.23;;;24.90;97.60;;;;;;1889090;75;21207;-72
2022/02/17 03:21:22;;;;;;;21.52;15.83;;;24.90;97.50;;;;;;1885264;75;21225;-72
2022/02/17 03:23:53;;;;;;;18.75;14.55;;;25.00;97.50;;;;;;1889356;75;21105;-73
2022/02/17 03:26:24;;;;;;;21.87;17.25;;;25.00;97.40;;;;;;1887312;75;21616;-73
2022/02/17 03:28:55;;;;;;;21.48;17.55;;;25.00;97.20;;;;;;1884226;75;21644;-72
2022/02/17 03:31:26;;;;;;;20.32;16.42;;;25.10;97.10;;;;;;1888598;75;21109;-73
2022/02/17 03:33:56;;;;;;;16.35;14.25;;;25.20;96.90;;;;;;1885429;75;21597;-73
2022/02/17 03:36:27;;;;;;;17.98;13.70;;;25.30;96.90;;;;;;1879089;75;21528;-73
2022/02/17 03:39:00;;;;;;;14.73;12.70;;;25.40;96.50;;;;;;1875246;75;21666;-73
2022/02/17 03:41:32;;;;;;;16.20;13.38;;;25.50;96.60;;;;;;1893644;75;21152;-72
2022/02/17 03:44:03;;;;;;;16.10;12.80;;;25.60;96.30;;;;;;1872692;75;21064;-70
2022/02/17 03:46:34;;;;;;;15.28;12.75;;;25.80;95.80;;;;;;1893769;75;21050;-71
2022/02/17 03:49:04;;;;;;;13.58;11.88;;;25.90;95.90;;;;;;1886872;75;21713;-72
2022/02/17 03:51:35;;;;;;;14.83;12.43;;;26.00;95.50;;;;;;1890628;75;21121;-72
2022/02/17 03:54:06;;;;;;;16.10;13.50;;;26.00;94.80;;;;;;1877218;75;21207;-71
2022/02/17 03:56:37;;;;;;;14.87;12.13;;;26.10;94.90;;;;;;1892713;75;21124;-71
2022/02/17 03:59:08;;;;;;;15.35;12.45;;;26.20;94.60;;;;;;1887942;75;21292;-71
2022/02/17 04:01:40;;;;;;;14.73;12.37;;;26.30;94.70;;;;;;1883755;75;21265;-72
2022/02/17 04:04:12;;;;;;;14.90;12.10;;;26.30;94.60;;;;;;1889548;75;21252;-69
2022/02/17 04:06:45;;;;;;;15.63;12.53;;;26.30;94.30;;;;;;1877258;75;21587;-71
2022/02/17 04:09:18;;;;;;;13.22;11.22;;;26.30;94.30;;;;;;1898450;75;21121;-71
2022/02/17 04:11:51;;;;;;;16.80;12.75;;;26.30;94.10;;;;;;1877000;75;21125;-71
2022/02/17 04:14:22;;;;;;;17.02;13.62;;;26.30;94.20;;;;;;1880247;75;21643;-71
2022/02/17 04:16:54;;;;;;;15.68;13.60;;;26.20;94.20;;;;;;1882486;75;21218;-72
2022/02/17 04:19:26;;;;;;;17.87;13.55;;;26.20;94.10;;;;;;1876989;74;21226;-72
2022/02/17 04:21:57;;;;;;;13.88;12.40;;;26.20;94.60;;;;;;1878746;75;21152;-71
2022/02/17 04:24:28;;;;;;;16.00;12.30;;;26.20;94.40;;;;;;1884410;75;21120;-72
2022/02/17 04:26:59;;;;;;;16.35;12.75;;;26.20;94.30;;;;;;1879837;75;21109;-72
2022/02/17 04:29:30;;;;;;;16.97;13.15;;;26.20;94.20;;;;;;1880120;75;21194;-72
2022/02/17 04:32:00;;;;;;;14.58;11.93;;;26.30;93.80;;;;;;1876585;75;21140;-71
2022/02/17 04:34:31;;;;;;;13.75;12.18;;;26.30;93.90;;;;;;1856851;76;21159;-72
2022/02/17 04:37:02;;;;;;;13.55;12.00;;;26.20;93.80;;;;;;1884430;75;21129;-72
2022/02/17 04:39:33;;;;;;;12.47;10.43;;;26.30;94.00;;;;;;1894455;75;21037;-72
2022/02/17 04:44:36;;;;;;;12.33;10.18;;;26.30;93.40;;;;;;1878955;75;21226;-72
2022/02/17 04:47:07;;;;;;;13.60;10.85;;;26.30;93.00;;;;;;1878012;75;21529;-72
2022/02/17 04:49:38;;;;;;;14.00;10.40;;;26.30;93.30;;;;;;1890104;75;21053;-72
2022/02/17 04:52:10;;;;;;;99.07;16.30;;;26.40;93.30;;;;;;1887096;75;21813;-73
2022/02/17 04:54:41;;;;;;;20.88;8.98;;;26.60;92.90;;;;;;1894673;75;21070;-72
2022/02/17 04:57:12;;;;;;;33.50;10.18;;;26.80;91.90;;;;;;1881132;75;21511;-72
2022/02/17 04:59:43;;;;;;;13.35;7.97;;;27.00;91.20;;;;;;1863374;75;21225;-72
2022/02/17 05:02:15;;;;;;;9.33;7.90;;;27.10;91.10;;;;;;1886777;74;21187;-72
2022/02/17 05:04:46;;;;;;;10.30;8.15;;;27.20;91.10;;;;;;1881102;75;21196;-71
2022/02/17 05:07:17;;;;;;;9.33;7.90;;;27.30;91.30;;;;;;1886714;75;21622;-70
2022/02/17 05:09:48;;;;;;;11.18;8.98;;;27.50;91.00;;;;;;1888853;75;21131;-71
2022/02/17 05:12:19;;;;;;;9.83;7.90;;;27.70;90.60;;;;;;1893311;75;21250;-72
2022/02/17 05:15:09;;;;;;;11.40;8.40;;;27.90;89.80;;;;;;1886121;75;21132;-71
2022/02/17 05:17:41;;;;;;;10.70;8.03;;;28.00;88.60;;;;;;1838322;77;21626;-71
2022/02/17 05:20:14;;;;;;;16.10;8.40;;;28.10;89.20;;;;;;1836102;77;21214;-71
2022/02/17 05:22:46;;;;;;;9.05;8.10;;;28.20;89.10;;;;;;1819351;77;21130;-70
2022/02/17 05:25:17;;;;;;;8.58;7.55;;;28.30;88.60;;;;;;1826842;78;21188;-71
2022/02/17 05:27:52;;;;;;;9.05;7.60;;;28.50;87.60;;;;;;1819895;77;21158;-70
2022/02/17 05:30:23;;;;;;;10.32;9.23;;;28.60;87.70;;;;;;1813619;77;21202;-71
2022/02/17 05:32:54;;;;;;;11.40;8.65;;;28.80;87.60;;;;;;1813988;77;21619;-71
2022/02/17 05:35:25;;;;;;;11.50;8.65;;;28.70;85.90;;;;;;1815095;77;21464;-71
2022/02/17 05:37:55;;;;;;;10.82;9.13;;;28.70;87.20;;;;;;1801820;77;21249;-71
2022/02/17 05:40:27;;;;;;;9.73;8.70;;;28.70;88.60;;;;;;1825804;77;21506;-71
2022/02/17 05:42:58;;;;;;;9.53;8.45;;;28.60;86.00;;;;;;1825854;77;21128;-72
2022/02/17 05:45:30;;;;;;;10.70;8.58;;;28.50;86.00;;;;;;1827776;77;21124;-72
2022/02/17 05:48:01;;;;;;;11.55;8.85;;;28.40;88.40;;;;;;1815531;77;21103;-73
2022/02/17 05:50:41;;;;;;;10.50;9.13;;;28.30;88.30;;;;;;1822882;76;21243;-73
2022/02/17 05:53:08;;;;;;;11.60;8.98;;;28.30;88.40;;;;;;1801679;78;21167;-72
2022/02/17 05:55:40;;;;;;;14.40;10.30;;;28.30;88.60;;;;;;1814273;77;21134;-71
2022/02/17 05:58:13;;;;;;;12.05;9.73;;;28.40;89.00;;;;;;1822116;76;21288;-72
2022/02/17 06:00:43;;;;;;;11.43;9.33;;;28.40;89.40;;;;;;1829988;77;21469;-72
2022/02/17 06:03:14;;;;;;;10.98;9.78;;;28.40;89.70;;;;;;1829184;76;21186;-72
2022/02/17 06:05:50;;;;;;;10.35;9.30;;;28.40;89.60;;;;;;1829894;77;21130;-71
2022/02/17 06:08:24;;;;;;;12.63;9.93;;;28.40;87.90;;;;;;1825035;77;21221;-70
2022/02/17 06:10:55;;;;;;;12.37;9.65;;;28.30;87.60;;;;;;1812961;77;21179;-69
2022/02/17 06:13:28;;;;;;;13.90;10.58;;;28.30;87.50;;;;;;1827158;76;21594;-71
2022/02/17 06:16:03;;;;;;;14.28;11.03;;;28.30;88.70;;;;;;1815102;75;21303;-73
2022/02/17 06:18:34;;;;;;;15.23;11.53;;;28.30;88.30;;;;;;1865093;75;21187;-70
2022/02/17 06:21:06;;;;;;;18.55;11.93;;;28.40;88.60;;;;;;1869611;75;21135;-71
2022/02/17 06:23:37;;;;;;;14.40;11.00;;;28.40;88.30;;;;;;1860090;75;21497;-71
2022/02/17 06:26:15;;;;;;;13.58;11.50;;;28.60;88.90;;;;;;1825695;77;21212;-70
2022/02/17 06:28:41;;;;;;;15.60;12.18;;;28.70;88.10;;;;;;1857760;75;21147;-71
2022/02/17 06:31:13;;;;;;;15.60;12.88;;;28.80;87.60;;;;;;1849635;75;21151;-70
2022/02/17 06:33:44;;;;;;;17.48;13.88;;;29.00;87.50;;;;;;1862177;75;21140;-70
2022/02/17 06:36:17;;;;;;;17.35;12.95;;;29.00;86.80;;;;;;1791284;77;21178;-69
2022/02/17 06:38:53;;;;;;;16.23;13.38;;;29.10;87.70;;;;;;1857734;75;21636;-72
2022/02/17 06:41:26;;;;;;;14.10;12.65;;;29.10;86.90;;;;;;1857765;75;21147;-71
2022/02/17 06:43:57;;;;;;;16.15;13.53;;;29.10;86.60;;;;;;1862606;75;21229;-72
2022/02/17 06:46:57;;;;;;;15.15;13.00;;;29.00;86.60;;;;;;1853139;75;21764;-72
2022/02/17 06:49:57;;;;;;;15.55;10.78;;;28.90;86.80;;;;;;1856412;75;21612;-71
2022/02/17 06:52:04;;;;;;;11.90;9.80;;;28.80;86.70;;;;;;1800719;77;21214;-71
2022/02/17 06:54:34;;;;;;;13.78;10.78;;;28.70;86.60;;;;;;1817558;77;21110;-71
2022/02/17 06:57:10;;;;;;;15.00;12.03;;;28.70;87.10;;;;;;1861650;75;21191;-70
2022/02/17 06:59:43;;;;;;;14.33;12.68;;;28.60;87.40;;;;;;1845567;75;22022;-71
2022/02/17 07:02:15;;;;;;;15.13;12.07;;;28.50;87.40;;;;;;1852008;75;21558;-72
2022/02/17 07:04:58;;;;;;;16.97;12.07;;;28.50;88.00;;;;;;1849807;76;21163;-71
2022/02/17 07:07:29;;;;;;;14.63;12.63;;;28.40;88.10;;;;;;1833529;76;21721;-72
2022/02/17 07:10:03;;;;;;;16.60;13.62;;;28.50;88.20;;;;;;1858189;75;21068;-70
2022/02/17 07:12:37;;;;;;;16.52;13.58;;;28.50;88.40;;;;;;1864946;75;21221;-72
2022/02/17 07:15:11;;;;;;;23.07;14.90;;;28.50;88.00;;;;;;1820653;77;21188;-71
2022/02/17 07:17:44;;;;;;;22.90;13.75;;;28.50;88.10;;;;;;1857145;75;21659;-72
2022/02/17 07:20:16;;;;;;;16.45;13.48;;;28.60;88.20;;;;;;1861689;75;21129;-72
2022/02/17 07:22:51;;;;;;;20.17;14.98;;;28.60;88.30;;;;;;1852543;75;21225;-73
2022/02/17 07:25:25;;;;;;;14.15;12.47;;;28.50;88.10;;;;;;1821631;77;22023;-72
2022/02/17 07:28:00;;;;;;;16.23;12.13;;;28.60;88.00;;;;;;1851640;75;21237;-72
2022/02/17 07:30:36;;;;;;;15.60;11.90;;;28.50;87.80;;;;;;1790454;77;21181;-72
2022/02/17 07:33:46;;;;;;;;;;;;;;;;;;;;;
2022/02/17 07:36:23;;;;;;;16.07;12.53;;;28.70;88.20;;;;;;1831175;76;21251;-74
2022/02/17 07:38:54;;;;;;;15.18;12.88;;;28.90;87.40;;;;;;1866485;75;21187;-73
2022/02/17 07:41:26;;;;;;;15.98;12.90;;;29.00;86.20;;;;;;1857339;76;21283;-72
2022/02/17 07:44:00;;;;;;;16.70;13.60;;;29.10;85.50;;;;;;1849449;75;21207;-73
2022/02/17 07:46:36;;;;;;;19.40;13.28;;;29.10;85.40;;;;;;1810325;77;21135;-73
2022/02/17 07:49:14;;;;;;;16.90;13.53;;;29.10;85.80;;;;;;1863450;75;21162;-70
2022/02/17 07:51:43;;;;;;;15.15;13.60;;;29.10;85.40;;;;;;1855994;75;21148;-71
2022/02/17 07:54:19;;;;;;;16.67;13.22;;;29.10;84.80;;;;;;1851982;75;21136;-71
2022/02/17 07:56:51;;;;;;;17.73;14.25;;;29.10;85.90;;;;;;1845372;76;21127;-70
2022/02/17 07:59:22;;;;;;;14.28;12.75;;;29.00;85.90;;;;;;1812395;75;21133;-70
2022/02/17 08:01:53;;;;;;;14.85;13.15;;;29.00;85.80;;;;;;1858303;75;21607;-71
2022/02/17 08:04:24;;;;;;;13.72;12.15;;;29.00;85.90;;;;;;1860210;75;21627;-71
2022/02/17 08:06:55;;;;;;;16.25;11.93;;;28.90;86.20;;;;;;1857060;75;21183;-72
2022/02/17 08:09:26;;;;;;;14.15;12.33;;;29.00;86.10;;;;;;1857963;75;21243;-71
2022/02/17 08:11:57;;;;;;;19.30;12.58;;;28.90;85.70;;;;;;1852044;75;21182;-72
2022/02/17 08:14:28;;;;;;;15.38;11.38;;;28.90;86.30;;;;;;1854356;75;21240;-71
2022/02/17 08:17:02;;;;;;;12.80;11.25;;;28.90;86.40;;;;;;1855941;75;21211;-71
2022/02/17 08:19:34;;;;;;;13.38;11.28;;;28.90;86.10;;;;;;1848241;75;21680;-72
2022/02/17 08:22:05;;;;;;;12.88;10.58;;;28.90;85.60;;;;;;1857455;75;21179;-72
2022/02/17 08:24:40;;;;;;;12.45;10.38;;;28.90;85.60;;;;;;1849261;76;21224;-71
2022/02/17 08:27:08;;;;;;;13.13;10.75;;;28.90;86.00;;;;;;1861845;75;21252;-71
2022/02/17 08:29:38;;;;;;;17.85;10.58;;;28.90;86.00;;;;;;1858748;75;21947;-72
2022/02/17 08:32:10;;;;;;;13.15;10.70;;;28.90;86.10;;;;;;1860653;75;21684;-72
2022/02/17 08:34:40;;;;;;;13.25;11.18;;;28.90;85.70;;;;;;1863882;75;21111;-72
2022/02/17 08:37:11;;;;;;;13.98;12.28;;;28.90;86.10;;;;;;1865144;75;21244;-73
2022/02/17 08:39:42;;;;;;;13.15;11.35;;;28.90;86.30;;;;;;1862372;75;21138;-72
2022/02/17 08:42:13;;;;;;;13.80;11.43;;;28.90;86.00;;;;;;1862034;75;21143;-73
2022/02/17 08:44:44;;;;;;;15.25;12.53;;;28.90;85.80;;;;;;1866042;75;21725;-72
2022/02/17 08:47:17;;;;;;;14.15;11.63;;;28.90;85.80;;;;;;1862417;75;21182;-73
2022/02/17 08:49:49;;;;;;;12.93;10.32;;;28.90;85.50;;;;;;1836963;75;21232;-71
2022/02/17 08:52:21;;;;;;;10.63;9.53;;;28.90;85.30;;;;;;1848161;76;21115;-72
2022/02/17 08:54:52;;;;;;;11.50;9.95;;;28.90;85.20;;;;;;1832162;76;21135;-72
2022/02/17 08:57:22;;;;;;;14.13;11.33;;;28.80;85.10;;;;;;1864972;75;21180;-70
2022/02/17 08:59:53;;;;;;;11.43;9.20;;;28.90;85.30;;;;;;1868734;75;21147;-72
2022/02/17 09:02:24;;;;;;;12.63;9.75;;;28.80;85.50;;;;;;1858684;75;21670;-72
2022/02/17 09:04:55;;;;;;;12.33;9.38;;;28.80;85.70;;;;;;1861922;75;21596;-72
2022/02/17 09:07:26;;;;;;;12.18;10.50;;;28.80;86.30;;;;;;1859040;75;21185;-73
2022/02/17 09:09:56;;;;;;;10.18;8.20;;;28.80;86.50;;;;;;1850187;76;21632;-73
2022/02/17 09:12:31;;;;;;;14.30;10.60;;;28.70;86.20;;;;;;1866868;75;21256;-72
2022/02/17 09:15:03;;;;;;;12.18;9.90;;;28.70;86.00;;;;;;1851216;75;22038;-72
2022/02/17 09:17:34;;;;;;;11.68;9.55;;;28.70;85.70;;;;;;1866892;75;21579;-73
2022/02/17 09:20:06;;;;;;;12.60;9.70;;;28.60;86.00;;;;;;1864165;75;21640;-74
2022/02/17 09:22:37;;;;;;;10.68;8.75;;;28.60;86.00;;;;;;1863373;75;21088;-72
2022/02/17 09:25:08;;;;;;;11.30;9.50;;;28.60;86.20;;;;;;1853530;75;21140;-72
2022/02/17 09:27:39;;;;;;;11.10;9.20;;;28.60;86.50;;;;;;1876617;75;21128;-72
2022/02/17 09:30:11;;;;;;;10.28;8.78;;;28.50;87.30;;;;;;1809328;77;21186;-72
2022/02/17 09:32:41;;;;;;;16.48;11.65;;;28.50;86.40;;;;;;1854702;75;21190;-72
2022/02/17 09:35:12;;;;;;;13.40;11.43;;;28.50;86.50;;;;;;1862196;75;21084;-72
2022/02/17 09:37:44;;;;;;;10.90;9.40;;;28.50;86.80;;;;;;1860087;75;21142;-72
2022/02/17 09:40:20;;;;;;;12.05;9.53;;;28.50;87.00;;;;;;1854374;75;22208;-72
2022/02/17 09:42:51;;;;;;;12.18;8.50;;;28.50;86.40;;;;;;1846549;75;21107;-72
2022/02/17 09:45:23;;;;;;;12.23;8.53;;;28.50;86.30;;;;;;1844739;75;21171;-72
2022/02/17 09:47:55;;;;;;;11.53;8.88;;;28.50;86.40;;;;;;1842448;75;21115;-73
2022/02/17 09:50:26;;;;;;;11.78;9.40;;;28.50;86.10;;;;;;1845410;76;21795;-72
2022/02/17 09:53:01;;;;;;;16.15;8.98;;;28.60;86.40;;;;;;1850162;75;21163;-72
2022/02/17 09:55:29;;;;;;;10.40;8.38;;;28.60;86.30;;;;;;1858044;75;21245;-73
2022/02/17 09:58:01;;;;;;;9.50;8.40;;;28.60;86.30;;;;;;1859905;75;21260;-72
2022/02/17 10:00:32;;;;;;;10.98;7.67;;;28.60;86.10;;;;;;1864800;75;21100;-71
2022/02/17 10:03:06;;;;;;;11.95;7.83;;;28.60;85.80;;;;;;1861626;75;21145;-73
2022/02/17 10:05:36;;;;;;;15.38;11.03;;;28.60;85.50;;;;;;1877143;75;21175;-72
2022/02/17 10:08:10;;;;;;;9.78;8.40;;;28.50;85.70;;;;;;1812707;77;21248;-73
2022/02/17 10:10:41;;;;;;;12.20;9.33;;;28.50;85.80;;;;;;1864332;75;21642;-73
2022/02/17 10:13:17;;;;;;;14.58;10.20;;;28.50;85.90;;;;;;1860135;75;21586;-73
2022/02/17 10:15:47;;;;;;;9.28;8.23;;;28.50;86.30;;;;;;1864052;76;21084;-72
2022/02/17 10:18:19;;;;;;;14.40;10.08;;;28.50;85.70;;;;;;1863070;75;21641;-73
2022/02/17 10:20:54;;;;;;;10.43;7.87;;;28.50;85.80;;;;;;1862120;76;21147;-73
2022/02/17 10:23:29;;;;;;;9.43;7.85;;;28.50;85.60;;;;;;1870453;75;21119;-73
2022/02/17 10:26:05;;;;;;;9.55;7.65;;;28.50;85.70;;;;;;1874612;76;21119;-73
2022/02/17 10:28:41;;;;;;;10.80;7.95;;;28.50;85.80;;;;;;1871364;75;21236;-73
2022/02/17 10:31:14;;;;;;;10.98;7.95;;;28.50;85.80;;;;;;1867588;76;21581;-72
2022/02/17 10:33:52;;;;;;;10.68;7.58;;;28.50;86.10;;;;;;1858304;75;21222;-72
2022/02/17 10:36:21;;;;;;;8.78;7.60;;;28.40;86.00;;;;;;1866076;75;21152;-72
2022/02/17 10:38:55;;;;;;;10.63;7.35;;;28.40;85.70;;;;;;1859018;76;21992;-71
2022/02/17 10:41:33;;;;;;;9.98;8.20;;;28.40;86.30;;;;;;1870713;76;21119;-74
2022/02/17 10:44:07;;;;;;;12.98;9.73;;;28.40;86.20;;;;;;1866635;76;21147;-71
2022/02/17 10:46:38;;;;;;;12.82;8.90;;;28.40;86.40;;;;;;1870774;76;21615;-71
2022/02/17 10:49:11;;;;;;;12.20;9.50;;;28.40;86.50;;;;;;1871804;76;21173;-72
2022/02/17 10:51:46;;;;;;;12.88;10.38;;;28.30;86.70;;;;;;1860795;75;21225;-72
2022/02/17 10:54:20;;;;;;;15.63;11.97;;;28.30;86.70;;;;;;1866263;75;21202;-71
2022/02/17 10:56:51;;;;;;;21.68;13.85;;;28.30;86.60;;;;;;1872358;75;21548;-73
2022/02/17 11:01:57;;;;;;;64.50;38.13;;;28.20;86.80;;;;;;1868695;76;21233;-72
2022/02/17 11:04:28;;;;;;;50.83;31.35;;;28.20;87.10;;;;;;1869896;76;22128;-72
2022/02/17 11:06:59;;;;;;;62.53;38.58;;;28.20;87.40;;;;;;1864402;76;21162;-72
2022/02/17 11:09:33;;;;;;;48.60;30.77;;;28.10;87.60;;;;;;1858231;76;21161;-73
2022/02/17 11:12:06;;;;;;;40.98;25.95;;;28.10;87.90;;;;;;1870959;75;21119;-73
2022/02/17 11:14:39;;;;;;;23.30;16.17;;;28.00;88.20;;;;;;1869356;76;21127;-73
2022/02/17 11:17:12;;;;;;;18.27;14.50;;;28.00;88.90;;;;;;1863735;76;21206;-73
2022/02/17 11:19:45;;;;;;;16.25;13.00;;;28.00;90.20;;;;;;1869073;75;21085;-72
2022/02/17 11:22:17;;;;;;;19.07;13.45;;;27.90;90.50;;;;;;1852457;75;21622;-73
2022/02/17 11:24:50;;;;;;;17.67;14.05;;;27.90;90.80;;;;;;1826819;78;21606;-73
2022/02/17 11:27:23;;;;;;;19.00;14.33;;;27.80;90.70;;;;;;1824184;77;21065;-73
2022/02/17 11:29:54;;;;;;;17.98;14.20;;;27.80;91.00;;;;;;1819137;77;21528;-73
2022/02/17 11:32:26;;;;;;;19.98;15.55;;;27.80;91.20;;;;;;1817187;77;22055;-74
2022/02/17 11:34:59;;;;;;;23.02;16.17;;;27.70;91.20;;;;;;1823179;77;21187;-74
2022/02/17 11:37:32;;;;;;;19.57;14.63;;;27.70;91.40;;;;;;1830200;76;21163;-73
2022/02/17 11:40:06;;;;;;;17.73;14.28;;;27.60;91.60;;;;;;1837616;77;21570;-72
2022/02/17 11:42:43;;;;;;;20.48;15.63;;;27.60;91.60;;;;;;1831712;77;21143;-74
2022/02/17 11:45:15;;;;;;;16.82;14.68;;;27.60;91.90;;;;;;1827135;78;21721;-75
2022/02/17 11:47:48;;;;;;;26.40;17.10;;;27.50;92.10;;;;;;1827591;76;21614;-74
2022/02/17 11:50:21;;;;;;;21.97;15.28;;;27.50;92.10;;;;;;1835121;78;21171;-73
2022/02/17 11:52:54;;;;;;;20.20;16.05;;;27.40;92.10;;;;;;1818499;77;21158;-73
2022/02/17 11:55:25;;;;;;;21.95;16.35;;;27.40;92.30;;;;;;1825715;76;21548;-73
2022/02/17 11:57:57;;;;;;;22.70;16.25;;;27.40;92.40;;;;;;1817659;78;21715;-73
2022/02/17 12:00:34;;;;;;;22.85;16.90;;;27.40;92.40;;;;;;1822200;78;21150;-74
2022/02/17 12:03:02;;;;;;;25.10;17.80;;;27.40;92.50;;;;;;1785656;80;21634;-73
2022/02/17 12:05:33;;;;;;;19.82;17.10;;;27.30;92.50;;;;;;1822429;76;21587;-73
2022/02/17 12:08:07;;;;;;;22.32;16.27;;;27.30;92.60;;;;;;1834113;77;21190;-72
2022/02/17 12:10:39;;;;;;;20.27;16.75;;;27.30;92.50;;;;;;1813866;78;22380;-72
2022/02/17 12:13:12;;;;;;;22.60;16.70;;;27.30;92.60;;;;;;1799958;78;21147;-72
2022/02/17 12:15:45;;;;;;;24.57;17.30;;;27.30;92.70;;;;;;1844912;77;21597;-72
2022/02/17 12:18:16;;;;;;;19.20;16.23;;;27.30;92.80;;;;;;1844668;77;21205;-72
2022/02/17 12:20:46;;;;;;;23.15;17.50;;;27.30;92.80;;;;;;1860480;76;21184;-73
2022/02/17 12:23:19;;;;;;;26.30;18.92;;;27.30;92.80;;;;;;1865711;76;21115;-72
2022/02/17 12:25:50;;;;;;;20.55;17.55;;;27.30;92.90;;;;;;1875377;76;21660;-72
2022/02/17 12:28:21;;;;;;;22.52;17.07;;;27.20;92.90;;;;;;1875940;75;21136;-72
2022/02/17 12:30:53;;;;;;;22.93;19.05;;;27.30;92.90;;;;;;1865517;75;21056;-72
2022/02/17 12:33:26;;;;;;;29.02;17.50;;;27.20;93.00;;;;;;1862615;75;21158;-72
2022/02/17 12:36:02;;;;;;;25.72;16.20;;;27.20;93.00;;;;;;1864597;77;21085;-72
2022/02/17 12:38:35;;;;;;;20.35;15.90;;;27.20;93.00;;;;;;1864340;75;21715;-72
2022/02/17 12:41:08;;;;;;;22.48;17.10;;;27.10;93.00;;;;;;1865272;76;21597;-73
2022/02/17 12:43:41;;;;;;;26.48;16.67;;;27.20;93.20;;;;;;1856690;75;21095;-75
2022/02/17 12:46:18;;;;;;;20.92;15.83;;;27.10;93.20;;;;;;1864726;75;21143;-73
2022/02/17 12:48:47;;;;;;;21.60;15.45;;;27.10;93.30;;;;;;1862407;75;21135;-74
2022/02/17 12:51:23;;;;;;;23.52;17.00;;;27.10;93.30;;;;;;1863910;76;21122;-76
2022/02/17 12:53:58;;;;;;;22.10;17.12;;;27.10;93.30;;;;;;1866896;76;21583;-74
2022/02/17 12:56:30;;;;;;;23.62;18.23;;;27.10;93.50;;;;;;1860916;76;21175;-73
2022/02/17 12:59:04;;;;;;;21.20;16.25;;;27.10;93.60;;;;;;1856962;75;21623;-73
2022/02/17 13:01:36;;;;;;;19.23;15.85;;;27.10;93.50;;;;;;1871854;75;21127;-74
2022/02/17 13:04:08;;;;;;;22.55;18.10;;;27.10;93.50;;;;;;1859617;75;21096;-73